Time;durP1;ratioP1;P1;durP2;ratioP2;P2;SDS_P1;SDS_P2;PMS_P1;PMS_P2;Temp;Humidity;BMP_temperature;BMP_pressure;BME280_temperature;BME280_humidity;BME280_pressure;Samples;Min_cycle;Max_cycle;Signal;HPM_P1;HPM_P2
2022/06/24 00:01:15;;;;;;;4.22;1.23;;;19.80;80.60;;;;;;5027388;28;20105;-69
2022/06/24 00:03:44;;;;;;;5.57;1.20;;;19.80;69.10;;;;;;5026544;28;20133;-58
2022/06/24 00:06:17;;;;;;;3.47;1.20;;;19.80;68.10;;;;;;5012447;28;20053;-62
2022/06/24 00:08:59;;;;;;;5.50;1.30;;;19.80;67.60;;;;;;5013786;28;20052;-65
2022/06/24 00:11:28;;;;;;;1.23;1.08;;;19.90;63.10;;;;;;5028588;28;20037;-59
2022/06/24 00:14:08;;;;;;;1.63;1.08;;;19.90;60.70;;;;;;5028605;28;20056;-61
2022/06/24 00:17:04;;;;;;;8.15;1.20;;;19.90;53.40;;;;;;5029615;28;20045;-57
2022/06/24 00:19:32;;;;;;;1.35;1.20;;;19.90;51.60;;;;;;4999901;28;20057;-62
2022/06/24 00:22:03;;;;;;;5.55;1.13;;;20.00;51.40;;;;;;5047767;28;20045;-62
2022/06/24 00:24:31;;;;;;;4.05;1.25;;;20.00;52.80;;;;;;5026723;28;20129;-66
2022/06/24 00:26:57;;;;;;;2.83;1.30;;;20.00;54.20;;;;;;5017015;28;20045;-65
2022/06/24 00:29:27;;;;;;;1.20;1.10;;;19.90;59.40;;;;;;5029607;28;20060;-66
2022/06/24 00:32:04;;;;;;;2.92;1.10;;;19.90;59.10;;;;;;5028208;28;20071;-66
2022/06/24 00:34:30;;;;;;;4.55;1.33;;;19.80;66.00;;;;;;5030271;28;20055;-61
2022/06/24 00:36:56;;;;;;;1.83;1.30;;;19.70;70.80;;;;;;5016273;28;20115;-59
2022/06/24 00:39:35;;;;;;;10.02;1.27;;;19.60;66.70;;;;;;5029650;28;20550;-58
2022/06/24 00:42:02;;;;;;;3.78;1.40;;;19.60;68.10;;;;;;5028298;28;20423;-58
2022/06/24 00:44:44;;;;;;;3.50;1.48;;;19.60;68.60;;;;;;5029516;28;20098;-61
2022/06/24 00:47:14;;;;;;;8.32;1.50;;;19.40;70.60;;;;;;5028131;28;20099;-64
2022/06/24 00:49:40;;;;;;;3.35;1.50;;;19.40;69.10;;;;;;5028076;28;20044;-59
2022/06/24 00:52:07;;;;;;;5.18;1.40;;;19.40;71.40;;;;;;5028888;28;20049;-64
2022/06/24 00:54:33;;;;;;;2.22;1.30;;;19.40;71.70;;;;;;5027938;28;20096;-59
2022/06/24 00:56:59;;;;;;;2.78;1.17;;;19.30;72.70;;;;;;4995941;28;20129;-64
2022/06/24 00:59:25;;;;;;;2.20;1.15;;;19.30;74.40;;;;;;5028450;28;20465;-57
2022/06/24 01:01:52;;;;;;;2.38;1.40;;;19.20;72.90;;;;;;5028661;28;20068;-62
2022/06/24 01:04:18;;;;;;;4.63;1.63;;;19.20;74.50;;;;;;5029390;28;20560;-59
2022/06/24 01:06:44;;;;;;;3.92;1.35;;;19.20;78.20;;;;;;5045501;28;20053;-70
2022/06/24 01:09:11;;;;;;;5.43;1.50;;;19.10;80.60;;;;;;5027160;28;20048;-61
2022/06/24 01:11:40;;;;;;;1.70;1.17;;;19.00;82.10;;;;;;5011149;28;20449;-60
2022/06/24 01:14:06;;;;;;;4.40;1.33;;;19.00;84.30;;;;;;5012651;28;20052;-59
2022/06/24 01:16:33;;;;;;;2.28;1.52;;;19.00;86.20;;;;;;5011538;28;20105;-64
2022/06/24 01:19:03;;;;;;;1.60;1.50;;;18.90;88.00;;;;;;5044868;28;20092;-59
2022/06/24 01:21:38;;;;;;;3.53;1.58;;;18.80;90.90;;;;;;5015998;28;20037;-58
2022/06/24 01:24:08;;;;;;;3.03;1.65;;;18.80;92.40;;;;;;5026981;28;20379;-69
2022/06/24 01:26:35;;;;;;;1.95;1.58;;;18.80;92.20;;;;;;5033500;28;20068;-59
2022/06/24 01:29:01;;;;;;;8.55;1.77;;;18.80;92.90;;;;;;5018689;28;20047;-60
2022/06/24 01:31:27;;;;;;;2.08;1.30;;;18.80;93.70;;;;;;5027602;28;20056;-61
2022/06/24 01:33:53;;;;;;;5.40;1.73;;;18.80;93.30;;;;;;5015251;28;20496;-65
2022/06/24 01:36:18;;;;;;;3.50;1.55;;;18.80;94.40;;;;;;5044163;28;20555;-58
2022/06/24 01:38:44;;;;;;;3.25;1.60;;;18.80;94.40;;;;;;5026860;28;20115;-65
2022/06/24 01:41:10;;;;;;;1.90;1.40;;;18.80;94.70;;;;;;5027107;28;20045;-60
2022/06/24 01:43:35;;;;;;;1.50;1.40;;;18.80;95.10;;;;;;5012689;28;20053;-66
2022/06/24 01:46:01;;;;;;;3.05;1.98;;;18.70;95.20;;;;;;5026626;28;20060;-65
2022/06/24 01:48:28;;;;;;;1.98;1.60;;;18.70;96.00;;;;;;5028887;28;20144;-63
2022/06/24 01:50:55;;;;;;;2.72;1.85;;;18.70;96.30;;;;;;5005457;28;20056;-63
2022/06/24 01:53:21;;;;;;;1.60;1.50;;;18.70;95.30;;;;;;5020288;28;20136;-64
2022/06/24 01:55:47;;;;;;;3.25;2.15;;;18.60;95.50;;;;;;5028220;28;20473;-59
2022/06/24 01:58:15;;;;;;;5.33;1.60;;;18.60;94.70;;;;;;5028404;28;20084;-61
2022/06/24 02:00:41;;;;;;;2.47;1.52;;;18.60;91.50;;;;;;5028810;28;20076;-62
2022/06/24 02:03:07;;;;;;;5.40;1.73;;;18.70;91.30;;;;;;5009308;28;20049;-61
2022/06/24 02:05:33;;;;;;;8.55;1.80;;;18.70;92.50;;;;;;5028838;28;20053;-64
2022/06/24 02:07:59;;;;;;;5.70;1.90;;;18.70;91.90;;;;;;5017175;28;20491;-62
2022/06/24 02:13:27;;;;;;;2.13;1.90;;;18.70;91.90;;;;;;5030501;28;20124;-62
2022/06/24 02:16:03;;;;;;;6.55;1.55;;;18.70;93.80;;;;;;5046586;28;20049;-64
2022/06/24 02:18:32;;;;;;;4.65;1.92;;;18.60;95.00;;;;;;5050612;28;20068;-66
2022/06/24 02:20:59;;;;;;;9.93;2.30;;;18.50;95.00;;;;;;5030603;28;20045;-59
2022/06/24 02:23:26;;;;;;;2.78;1.90;;;18.50;96.20;;;;;;5032186;28;20419;-62
2022/06/24 02:25:52;;;;;;;1.80;1.70;;;18.50;96.10;;;;;;5028389;28;20521;-66
2022/06/24 02:28:18;;;;;;;3.63;1.80;;;18.50;97.20;;;;;;5018551;28;20052;-64
2022/06/24 02:30:46;;;;;;;2.13;1.67;;;18.40;97.20;;;;;;5032973;28;20057;-61
2022/06/24 02:33:12;;;;;;;2.03;1.90;;;18.40;97.20;;;;;;5028879;28;20056;-66
2022/06/24 02:35:39;;;;;;;2.60;1.70;;;18.40;96.10;;;;;;5013540;28;20057;-64
2022/06/24 02:38:06;;;;;;;5.20;1.85;;;18.40;96.20;;;;;;5047884;28;20045;-61
2022/06/24 02:40:51;;;;;;;3.60;2.10;;;18.40;95.20;;;;;;5032114;28;20045;-62
2022/06/24 02:43:25;;;;;;;3.47;1.95;;;18.40;95.30;;;;;;5031593;28;20083;-58
2022/06/24 02:45:54;;;;;;;4.43;2.22;;;18.40;95.30;;;;;;5038475;28;20128;-59
2022/06/24 02:48:21;;;;;;;6.30;2.07;;;18.30;96.10;;;;;;5029322;28;20049;-69
2022/06/24 02:50:50;;;;;;;7.03;2.30;;;18.30;95.90;;;;;;5030315;28;20044;-66
2022/06/24 02:53:17;;;;;;;5.40;2.00;;;18.30;96.40;;;;;;5049187;28;20064;-64
2022/06/24 02:55:44;;;;;;;2.58;2.20;;;18.40;96.40;;;;;;5028674;28;20128;-61
2022/06/24 02:58:10;;;;;;;3.35;2.10;;;18.30;97.20;;;;;;5014855;28;20049;-58
2022/06/24 03:00:36;;;;;;;5.80;2.20;;;18.30;97.10;;;;;;5030933;28;20045;-66
2022/06/24 03:03:02;;;;;;;7.85;2.08;;;18.30;97.20;;;;;;5013832;28;20056;-64
2022/06/24 03:05:28;;;;;;;4.32;1.98;;;18.20;97.60;;;;;;5014907;28;20056;-63
2022/06/24 03:07:54;;;;;;;3.67;2.20;;;18.20;97.60;;;;;;5027728;28;20053;-61
2022/06/24 03:10:21;;;;;;;2.30;2.10;;;18.20;97.60;;;;;;5019133;28;20049;-61
2022/06/24 03:12:46;;;;;;;3.80;2.17;;;18.20;97.20;;;;;;5029681;28;20040;-60
2022/06/24 03:15:12;;;;;;;10.27;2.60;;;18.20;97.30;;;;;;5031308;28;20122;-61
2022/06/24 03:17:38;;;;;;;4.82;2.50;;;18.20;97.40;;;;;;5028203;28;20056;-57
2022/06/24 03:20:06;;;;;;;4.95;2.28;;;18.20;98.00;;;;;;5030450;28;20416;-60
2022/06/24 03:22:32;;;;;;;5.07;2.35;;;18.20;97.50;;;;;;5031075;28;20091;-65
2022/06/24 03:24:58;;;;;;;2.95;2.28;;;18.10;98.10;;;;;;5029675;28;20120;-59
2022/06/24 03:27:24;;;;;;;8.00;2.42;;;18.20;98.20;;;;;;5024841;28;20622;-60
2022/06/24 03:29:50;;;;;;;5.90;2.33;;;18.10;98.20;;;;;;5043796;28;20033;-61
2022/06/24 03:32:15;;;;;;;2.13;1.98;;;18.10;98.00;;;;;;5023448;28;20048;-65
2022/06/24 03:34:41;;;;;;;5.32;2.67;;;18.10;98.60;;;;;;5029551;28;20120;-58
2022/06/24 03:37:07;;;;;;;5.15;2.25;;;18.10;98.30;;;;;;5030582;28;20133;-67
2022/06/24 03:39:33;;;;;;;10.38;2.30;;;18.10;99.20;;;;;;5030801;28;20044;-58
2022/06/24 03:41:58;;;;;;;5.72;2.17;;;18.10;98.70;;;;;;5020524;28;20716;-64
2022/06/24 03:44:25;;;;;;;5.97;2.10;;;18.10;98.40;;;;;;5014416;28;20052;-63
2022/06/24 03:46:51;;;;;;;3.78;2.10;;;18.10;98.30;;;;;;5028881;28;20053;-64
2022/06/24 03:49:18;;;;;;;4.50;2.42;;;18.20;98.10;;;;;;5030407;28;20056;-60
2022/06/24 03:51:45;;;;;;;3.55;2.42;;;18.30;98.20;;;;;;5021022;28;20064;-59
2022/06/24 03:54:11;;;;;;;2.13;1.95;;;18.30;98.00;;;;;;5013869;28;20138;-64
2022/06/24 03:56:37;;;;;;;5.70;2.47;;;18.50;97.30;;;;;;5046746;28;20498;-58
2022/06/24 03:59:03;;;;;;;4.53;2.40;;;18.60;95.80;;;;;;5030126;28;20056;-67
2022/06/24 04:01:29;;;;;;;6.82;2.30;;;18.70;95.10;;;;;;5028994;28;20407;-57
2022/06/24 04:03:54;;;;;;;2.15;1.90;;;18.80;93.70;;;;;;5012634;28;20166;-59
2022/06/24 04:06:20;;;;;;;3.40;2.17;;;18.90;93.70;;;;;;5013545;28;20049;-64
2022/06/24 04:08:46;;;;;;;2.72;1.75;;;19.00;92.90;;;;;;5028818;28;20045;-63
2022/06/24 04:11:14;;;;;;;5.63;2.00;;;19.00;92.40;;;;;;5013937;28;20037;-61
2022/06/24 04:13:40;;;;;;;9.32;2.10;;;19.00;93.00;;;;;;5027297;28;20551;-58
2022/06/24 04:16:06;;;;;;;4.35;2.30;;;19.00;92.00;;;;;;5047092;28;20139;-57
2022/06/24 04:18:33;;;;;;;3.10;2.05;;;19.00;92.70;;;;;;5029658;28;20056;-58
2022/06/24 04:20:59;;;;;;;4.18;2.08;;;19.00;94.40;;;;;;5026121;28;20060;-66
2022/06/24 04:23:25;;;;;;;5.40;1.98;;;19.00;93.90;;;;;;5018912;28;20045;-65
2022/06/24 04:25:51;;;;;;;4.68;2.17;;;19.00;94.80;;;;;;5011128;28;20423;-68
2022/06/24 04:28:17;;;;;;;5.22;2.20;;;19.00;93.20;;;;;;5016231;28;20044;-67
2022/06/24 04:30:43;;;;;;;6.70;2.00;;;19.00;93.10;;;;;;5027926;28;20053;-68
2022/06/24 04:33:09;;;;;;;4.88;1.95;;;19.00;90.90;;;;;;5029793;28;20059;-66
2022/06/24 04:35:35;;;;;;;2.35;1.80;;;19.10;91.30;;;;;;5029461;28;20056;-63
2022/06/24 04:38:01;;;;;;;4.53;2.22;;;19.10;91.00;;;;;;5025896;28;20402;-67
2022/06/24 04:40:27;;;;;;;3.85;1.75;;;19.20;90.60;;;;;;5027947;28;20082;-57
2022/06/24 04:42:53;;;;;;;3.78;2.30;;;19.30;88.40;;;;;;5028164;28;20044;-64
2022/06/24 04:45:19;;;;;;;3.17;2.50;;;19.30;89.90;;;;;;5029473;28;20045;-65
2022/06/24 04:47:44;;;;;;;6.65;2.40;;;19.30;90.40;;;;;;5028366;28;20502;-64
2022/06/24 04:50:11;;;;;;;4.68;2.10;;;19.40;90.70;;;;;;5022315;28;20053;-65
2022/06/24 04:52:38;;;;;;;3.72;1.90;;;19.40;91.00;;;;;;5027604;28;20137;-58
2022/06/24 04:55:05;;;;;;;3.85;2.30;;;19.50;91.60;;;;;;5028643;28;20108;-59
2022/06/24 04:57:30;;;;;;;2.15;1.90;;;19.60;90.70;;;;;;5012892;28;20049;-57
2022/06/24 04:59:56;;;;;;;5.28;2.25;;;19.60;90.40;;;;;;5046037;28;20040;-58
2022/06/24 05:02:22;;;;;;;4.78;2.08;;;19.70;90.30;;;;;;5008685;28;20037;-57
2022/06/24 05:04:48;;;;;;;4.88;2.40;;;19.70;89.20;;;;;;5011363;28;20131;-61
2022/06/24 05:07:13;;;;;;;4.70;2.60;;;20.00;88.00;;;;;;5028330;28;20063;-59
2022/06/24 05:09:39;;;;;;;3.20;2.40;;;20.20;88.90;;;;;;5027368;28;20033;-63
2022/06/24 05:12:05;;;;;;;5.43;2.20;;;20.50;84.70;;;;;;5029362;28;20061;-61
2022/06/24 05:14:32;;;;;;;3.05;2.25;;;20.60;83.20;;;;;;5026483;28;20135;-58
2022/06/24 05:16:58;;;;;;;7.03;2.17;;;20.60;79.20;;;;;;5028124;28;20061;-65
2022/06/24 05:19:23;;;;;;;2.40;2.20;;;20.50;79.40;;;;;;5046911;28;20041;-67
2022/06/24 05:21:49;;;;;;;3.17;2.15;;;20.50;79.40;;;;;;5011179;28;20037;-66
2022/06/24 05:24:15;;;;;;;2.40;2.20;;;20.40;83.50;;;;;;5028689;28;20044;-68
2022/06/24 05:26:45;;;;;;;3.42;2.38;;;20.40;84.20;;;;;;5020601;28;20554;-64
2022/06/24 05:29:11;;;;;;;4.32;2.13;;;20.40;84.30;;;;;;5040563;28;20045;-64
2022/06/24 05:31:38;;;;;;;4.00;2.13;;;20.40;88.00;;;;;;5011349;28;20091;-58
2022/06/24 05:34:04;;;;;;;7.05;2.28;;;20.30;81.10;;;;;;5011747;28;20052;-68
2022/06/24 05:36:30;;;;;;;4.47;2.40;;;20.20;82.60;;;;;;5012610;28;20075;-62
2022/06/24 05:38:56;;;;;;;5.05;2.17;;;20.20;86.10;;;;;;5025639;28;20045;-62
2022/06/24 05:41:22;;;;;;;6.70;2.13;;;20.10;90.60;;;;;;5028436;28;20100;-62
2022/06/24 05:43:48;;;;;;;8.35;1.75;;;20.00;92.40;;;;;;5010754;28;20103;-67
2022/06/24 05:46:14;;;;;;;4.28;2.53;;;19.90;92.40;;;;;;5028532;28;20044;-62
2022/06/24 05:48:40;;;;;;;2.90;2.30;;;19.90;93.10;;;;;;5027380;28;20406;-67
2022/06/24 05:51:11;;;;;;;3.33;2.00;;;19.80;94.60;;;;;;5027846;28;20049;-66
2022/06/24 05:56:22;;;;;;;13.82;2.35;;;19.70;96.70;;;;;;5012602;28;20319;-58
2022/06/24 05:58:48;;;;;;;3.13;2.22;;;19.70;97.50;;;;;;5028536;28;20080;-65
2022/06/24 06:01:14;;;;;;;3.95;2.50;;;19.70;97.10;;;;;;5026904;28;20088;-62
2022/06/24 06:03:40;;;;;;;3.55;2.20;;;19.70;95.60;;;;;;5028645;28;20045;-58
2022/06/24 06:06:08;;;;;;;2.22;2.03;;;19.70;95.50;;;;;;5009119;28;20088;-57
2022/06/24 06:08:37;;;;;;;3.05;1.75;;;19.70;95.40;;;;;;5028497;28;20053;-63
2022/06/24 06:11:22;;;;;;;3.88;2.05;;;19.70;95.90;;;;;;5028239;28;20055;-58
2022/06/24 06:13:49;;;;;;;8.00;2.13;;;19.70;96.30;;;;;;5027118;28;20135;-66
2022/06/24 06:16:17;;;;;;;2.92;2.55;;;19.60;95.10;;;;;;5024001;28;20386;-66
2022/06/24 06:18:44;;;;;;;5.22;2.42;;;19.50;95.70;;;;;;5019201;28;20057;-66
2022/06/24 06:21:10;;;;;;;5.13;2.40;;;19.50;94.10;;;;;;5026355;28;20084;-60
2022/06/24 06:23:38;;;;;;;4.22;2.53;;;19.50;94.30;;;;;;5025772;28;20049;-61
2022/06/24 06:26:05;;;;;;;12.57;3.20;;;19.40;95.80;;;;;;5029959;28;20110;-70
2022/06/24 06:28:31;;;;;;;9.65;3.47;;;19.40;99.90;;;;;;5028734;28;20268;-64
2022/06/24 06:30:58;;;;;;;11.85;4.50;;;19.20;99.90;;;;;;5010976;28;20138;-67
2022/06/24 06:33:24;;;;;;;7.20;3.88;;;19.00;99.90;;;;;;5028048;28;20049;-64
2022/06/24 06:35:50;;;;;;;6.97;3.92;;;18.70;99.90;;;;;;5027132;28;20049;-63
2022/06/24 06:38:16;;;;;;;10.45;4.15;;;18.50;99.90;;;;;;5011638;28;20499;-66
2022/06/24 06:40:42;;;;;;;8.88;3.92;;;18.40;99.90;;;;;;5027325;28;20129;-57
2022/06/24 06:43:09;;;;;;;8.63;4.03;;;18.20;99.90;;;;;;5023367;28;20155;-70
2022/06/24 06:45:38;;;;;;;8.57;4.15;;;18.10;99.90;;;;;;5028425;28;20111;-61
2022/06/24 06:48:04;;;;;;;;;;;18.10;99.90;;;;;;5027342;28;20139;-66
2022/06/24 06:50:31;;;;;;;9.32;4.20;;;17.90;99.90;;;;;;5027949;28;20015;-62
2022/06/24 06:52:56;;;;;;;8.45;4.65;;;17.90;99.90;;;;;;5011111;28;20076;-60
2022/06/24 06:55:22;;;;;;;8.05;4.35;;;17.90;99.90;;;;;;5031090;28;20498;-60
2022/06/24 06:57:48;;;;;;;8.23;4.55;;;17.90;99.90;;;;;;5029435;28;20052;-61
2022/06/24 07:00:15;;;;;;;6.15;4.35;;;17.80;99.90;;;;;;5031115;28;20559;-61
2022/06/24 07:02:41;;;;;;;7.05;4.68;;;17.70;99.90;;;;;;5030703;28;20045;-59
2022/06/24 07:05:07;;;;;;;10.13;4.63;;;17.60;99.90;;;;;;5030474;28;20060;-65
2022/06/24 07:07:34;;;;;;;5.35;4.65;;;17.50;99.90;;;;;;5014126;28;20053;-62
2022/06/24 07:10:00;;;;;;;7.97;5.00;;;17.50;99.90;;;;;;5013718;28;20338;-59
2022/06/24 07:12:28;;;;;;;6.20;4.90;;;17.50;99.90;;;;;;5031010;28;20132;-61
2022/06/24 07:14:54;;;;;;;8.55;7.50;;;17.60;99.90;;;;;;5029897;28;20056;-58
2022/06/24 07:17:20;;;;;;;8.18;6.10;;;17.60;99.90;;;;;;5014403;28;20083;-69
2022/06/24 07:19:46;;;;;;;6.70;5.60;;;17.70;99.90;;;;;;5039814;28;20076;-58
2022/06/24 07:22:14;;;;;;;8.55;5.57;;;17.80;99.90;;;;;;5013763;28;20052;-64
2022/06/24 07:24:40;;;;;;;10.73;5.90;;;17.90;99.90;;;;;;5014625;28;20040;-58
2022/06/24 07:27:07;;;;;;;6.82;6.13;;;17.90;99.90;;;;;;5029258;28;20085;-62
2022/06/24 07:29:34;;;;;;;7.90;5.88;;;18.00;99.90;;;;;;5047761;28;20057;-61
2022/06/24 07:32:05;;;;;;;14.73;6.13;;;18.10;99.90;;;;;;5027975;28;20057;-62
2022/06/24 07:34:32;;;;;;;13.50;6.57;;;18.20;99.90;;;;;;5033771;28;20103;-59
2022/06/24 07:36:59;;;;;;;6.57;5.65;;;18.30;99.90;;;;;;5020989;28;20072;-60
2022/06/24 07:39:25;;;;;;;9.85;5.65;;;18.50;99.90;;;;;;5028729;28;20045;-68
2022/06/24 07:41:51;;;;;;;7.45;4.82;;;18.60;99.90;;;;;;5001371;28;20043;-57
2022/06/24 07:44:17;;;;;;;12.15;5.90;;;18.80;99.90;;;;;;5029222;28;20080;-66
2022/06/24 07:46:43;;;;;;;7.63;5.38;;;19.00;99.90;;;;;;5030529;28;20080;-65
2022/06/24 07:49:09;;;;;;;10.02;5.60;;;19.10;99.90;;;;;;5029164;28;20056;-64
2022/06/24 07:51:34;;;;;;;9.73;5.28;;;19.20;99.90;;;;;;5002384;28;20061;-64
2022/06/24 07:54:01;;;;;;;7.13;5.38;;;19.30;99.90;;;;;;5029297;28;20048;-64
2022/06/24 07:59:11;;;;;;;11.88;5.22;;;19.60;99.90;;;;;;5030816;28;20056;-58
2022/06/24 08:01:37;;;;;;;8.95;5.50;;;19.80;99.90;;;;;;5025076;28;20045;-61
2022/06/24 08:04:09;;;;;;;6.05;5.38;;;20.00;99.90;;;;;;5048498;28;20037;-62
2022/06/24 08:06:40;;;;;;;14.70;6.30;;;20.20;99.90;;;;;;5027755;28;20483;-64
2022/06/24 08:09:07;;;;;;;5.88;5.07;;;20.40;99.90;;;;;;5016969;28;20120;-61
2022/06/24 08:11:33;;;;;;;6.68;4.80;;;20.60;99.90;;;;;;5027011;28;20092;-66
2022/06/24 08:13:59;;;;;;;5.95;5.35;;;20.70;99.90;;;;;;5005950;28;20505;-64
2022/06/24 08:16:25;;;;;;;6.95;5.13;;;20.80;99.90;;;;;;5016714;28;20057;-57
2022/06/24 08:18:51;;;;;;;9.48;5.43;;;20.90;99.90;;;;;;5014974;28;20372;-57
2022/06/24 08:21:17;;;;;;;10.32;4.25;;;21.20;99.90;;;;;;5010127;28;20049;-65
2022/06/24 08:23:43;;;;;;;11.40;6.85;;;21.30;99.90;;;;;;5040729;28;20492;-58
2022/06/24 08:26:09;;;;;;;8.27;5.68;;;21.20;99.90;;;;;;5041285;28;20129;-63
2022/06/24 08:28:34;;;;;;;12.43;9.00;;;21.20;99.90;;;;;;5025975;28;20052;-55
2022/06/24 08:31:01;;;;;;;22.77;12.63;;;21.00;99.90;;;;;;5027371;28;20449;-64
2022/06/24 08:33:27;;;;;;;16.77;10.82;;;20.80;99.90;;;;;;5025691;28;20041;-67
2022/06/24 08:35:53;;;;;;;12.93;7.63;;;20.70;99.90;;;;;;5010253;28;20090;-61
2022/06/24 08:38:19;;;;;;;9.07;5.05;;;20.70;99.90;;;;;;5027685;28;20055;-64
2022/06/24 08:40:52;;;;;;;8.07;4.93;;;20.70;99.90;;;;;;5024518;28;20076;-57
2022/06/24 08:43:23;;;;;;;13.75;4.82;;;20.70;99.90;;;;;;5006927;28;20045;-60
2022/06/24 08:45:49;;;;;;;11.70;4.20;;;20.70;99.90;;;;;;5013228;28;20053;-54
2022/06/24 08:48:15;;;;;;;7.85;3.97;;;20.80;99.90;;;;;;5028221;28;20049;-61
2022/06/24 08:50:42;;;;;;;8.13;3.55;;;20.70;99.90;;;;;;5011391;28;20399;-57
2022/06/24 08:53:09;;;;;;;7.95;3.92;;;20.70;99.90;;;;;;5040922;28;20494;-56
2022/06/24 08:55:37;;;;;;;7.25;4.07;;;20.70;99.90;;;;;;5025616;28;20045;-59
2022/06/24 08:58:13;;;;;;;10.05;3.88;;;20.70;99.90;;;;;;5023614;28;20104;-59
2022/06/24 09:00:40;;;;;;;6.20;2.88;;;20.70;99.90;;;;;;5011724;28;20446;-56
2022/06/24 09:03:06;;;;;;;5.55;2.50;;;20.70;99.90;;;;;;5009705;28;20041;-55
2022/06/24 09:05:33;;;;;;;6.45;2.67;;;20.80;99.90;;;;;;5010716;28;20132;-60
2022/06/24 09:08:07;;;;;;;5.18;2.08;;;20.70;99.90;;;;;;5037387;28;20045;-56
2022/06/24 09:10:34;;;;;;;7.50;2.70;;;20.70;99.90;;;;;;5023096;28;20053;-62
2022/06/24 09:12:59;;;;;;;4.25;2.22;;;20.60;99.90;;;;;;5029080;28;20605;-65
2022/06/24 09:15:25;;;;;;;5.95;2.30;;;20.50;99.90;;;;;;5031925;28;20077;-58
2022/06/24 09:17:54;;;;;;;5.25;2.17;;;20.50;99.90;;;;;;5032758;28;20527;-59
2022/06/24 09:20:29;;;;;;;5.43;2.40;;;20.40;99.90;;;;;;5045547;28;20150;-60
2022/06/24 09:23:15;;;;;;;7.00;2.47;;;20.40;99.90;;;;;;5045742;28;20495;-63
2022/06/24 09:25:50;;;;;;;9.68;2.85;;;20.40;99.90;;;;;;5026049;28;20139;-61
2022/06/24 09:28:30;;;;;;;5.00;2.03;;;20.30;99.90;;;;;;5025460;28;20518;-62
2022/06/24 09:31:03;;;;;;;3.17;2.00;;;20.30;99.90;;;;;;5044807;28;20124;-66
2022/06/24 09:33:40;;;;;;;3.75;2.08;;;20.30;99.90;;;;;;5040254;28;20088;-57
2022/06/24 09:36:11;;;;;;;7.40;2.55;;;20.30;99.90;;;;;;5044994;28;20052;-59
2022/06/24 09:38:56;;;;;;;4.82;1.83;;;20.30;99.90;;;;;;5028116;28;20036;-61
2022/06/24 09:41:23;;;;;;;3.22;1.75;;;20.30;99.90;;;;;;5022098;28;20568;-69
2022/06/24 09:43:51;;;;;;;2.90;1.85;;;20.30;99.90;;;;;;5025277;28;20037;-62
2022/06/24 09:46:22;;;;;;;5.18;1.80;;;20.30;99.90;;;;;;5008738;28;20175;-57
2022/06/24 09:48:51;;;;;;;3.47;1.67;;;20.30;99.90;;;;;;5004220;28;20051;-65
2022/06/24 09:51:18;;;;;;;7.23;2.00;;;20.30;99.90;;;;;;5023418;28;20503;-67
2022/06/24 09:53:45;;;;;;;5.05;1.83;;;20.30;99.90;;;;;;5004222;28;20057;-64
2022/06/24 09:56:12;;;;;;;5.80;1.80;;;20.30;99.90;;;;;;5018930;28;20049;-62
2022/06/24 09:58:39;;;;;;;4.82;1.70;;;20.30;99.90;;;;;;5033296;28;20424;-68
2022/06/24 10:01:06;;;;;;;2.40;1.90;;;20.30;99.90;;;;;;5016998;28;20049;-63
2022/06/24 10:03:34;;;;;;;3.55;1.70;;;20.30;99.90;;;;;;5020294;28;20049;-64
2022/06/24 10:06:03;;;;;;;4.95;2.13;;;20.40;99.90;;;;;;5000328;28;20376;-64
2022/06/24 10:08:34;;;;;;;2.88;1.45;;;20.40;99.90;;;;;;5019491;28;20045;-58
2022/06/24 10:11:04;;;;;;;3.70;1.95;;;20.50;99.90;;;;;;5025683;28;20495;-60
2022/06/24 10:13:32;;;;;;;4.32;1.95;;;20.50;99.90;;;;;;5028092;28;20053;-65
2022/06/24 10:16:03;;;;;;;7.70;2.45;;;20.40;99.90;;;;;;5008396;28;20381;-65
2022/06/24 10:18:42;;;;;;;6.35;2.35;;;20.40;99.90;;;;;;5011402;28;20037;-60
2022/06/24 10:21:10;;;;;;;2.88;1.83;;;20.40;99.90;;;;;;5011201;28;20483;-58
2022/06/24 10:23:47;;;;;;;6.18;2.40;;;20.40;99.90;;;;;;5027671;28;20407;-64
2022/06/24 10:26:34;;;;;;;3.42;2.00;;;20.40;99.90;;;;;;5010922;28;20387;-60
2022/06/24 10:29:00;;;;;;;5.40;2.15;;;20.40;99.90;;;;;;4995685;28;20061;-59
2022/06/24 10:31:45;;;;;;;4.70;2.38;;;20.50;99.90;;;;;;5029787;28;20120;-61
2022/06/24 10:34:10;;;;;;;9.68;2.67;;;20.50;99.90;;;;;;5008037;28;20049;-58
2022/06/24 10:36:36;;;;;;;5.82;2.35;;;20.50;99.90;;;;;;5029702;28;20048;-59
2022/06/24 10:39:16;;;;;;;10.70;3.17;;;20.50;99.90;;;;;;5031809;28;20125;-57
2022/06/24 10:41:43;;;;;;;2.85;1.63;;;20.60;99.90;;;;;;5025031;28;20128;-61
2022/06/24 10:44:23;;;;;;;2.30;1.60;;;20.70;99.90;;;;;;5029225;28;20044;-69
2022/06/24 10:47:04;;;;;;;4.65;1.80;;;20.60;99.90;;;;;;5025042;28;20195;-65
2022/06/24 10:49:52;;;;;;;5.95;1.90;;;20.60;99.90;;;;;;5011833;28;20033;-64
2022/06/24 10:52:51;;;;;;;3.60;1.90;;;20.60;99.90;;;;;;5030196;28;20110;-59
2022/06/24 10:55:29;;;;;;;2.97;1.85;;;20.60;99.90;;;;;;5027430;28;20487;-61
2022/06/24 10:58:00;;;;;;;4.43;1.77;;;20.60;99.90;;;;;;5045486;28;20053;-61
2022/06/24 11:00:43;;;;;;;3.33;1.60;;;20.50;99.90;;;;;;5025768;28;20461;-63
2022/06/24 11:03:08;;;;;;;5.80;1.83;;;20.40;99.90;;;;;;5031838;28;20514;-57
2022/06/24 11:05:39;;;;;;;2.78;1.35;;;20.30;99.90;;;;;;5027564;28;20068;-63
2022/06/24 11:08:13;;;;;;;3.20;1.88;;;20.30;99.90;;;;;;5021251;28;20056;-59
2022/06/24 11:10:39;;;;;;;5.10;1.63;;;20.20;99.90;;;;;;5044174;28;20045;-58
2022/06/24 11:13:05;;;;;;;4.38;1.60;;;20.20;99.90;;;;;;5029984;28;20570;-58
2022/06/24 11:15:49;;;;;;;5.03;2.10;;;20.10;99.90;;;;;;5013608;28;20232;-72
2022/06/24 11:18:17;;;;;;;7.10;1.77;;;20.00;99.90;;;;;;5045553;28;20144;-60
2022/06/24 11:20:49;;;;;;;3.33;1.90;;;19.80;99.90;;;;;;5029431;28;20080;-66
2022/06/24 11:23:17;;;;;;;7.30;2.22;;;19.80;99.90;;;;;;5031722;28;20126;-61
2022/06/24 11:25:49;;;;;;;22.55;3.65;;;19.80;99.90;;;;;;5029711;28;20056;-58
2022/06/24 11:28:26;;;;;;;9.35;3.03;;;19.80;99.90;;;;;;5031528;28;20061;-58
2022/06/24 11:30:53;;;;;;;3.83;2.40;;;19.80;99.90;;;;;;5028981;28;20088;-55
2022/06/24 11:33:21;;;;;;;5.75;2.45;;;19.80;99.90;;;;;;5035558;28;20041;-58
2022/06/24 11:35:48;;;;;;;7.93;2.47;;;19.80;99.90;;;;;;5048914;28;20074;-65
2022/06/24 11:38:14;;;;;;;2.33;1.10;;;19.60;99.90;;;;;;5029436;28;20045;-63
2022/06/24 11:40:41;;;;;;;1.23;0.60;;;19.40;99.90;;;;;;5012257;28;20064;-67
2022/06/24 11:43:12;;;;;;;7.05;0.68;;;19.30;99.90;;;;;;5013321;28;20076;-58
2022/06/24 11:45:44;;;;;;;2.03;0.63;;;19.20;99.90;;;;;;5029689;28;20060;-59
2022/06/24 11:48:12;;;;;;;1.65;0.60;;;19.20;99.90;;;;;;5014705;28;20128;-58
2022/06/24 11:50:40;;;;;;;1.50;0.40;;;19.10;99.90;;;;;;5021430;28;20056;-58
2022/06/24 11:53:07;;;;;;;0.55;0.47;;;19.00;99.90;;;;;;5045062;28;20049;-62
2022/06/24 11:55:39;;;;;;;3.15;0.90;;;19.00;99.90;;;;;;5029191;28;20515;-61
2022/06/24 11:58:07;;;;;;;2.60;0.55;;;18.90;99.90;;;;;;5030627;28;20080;-68
2022/06/24 12:00:36;;;;;;;2.40;0.63;;;18.90;99.90;;;;;;5027951;28;20076;-59
2022/06/24 12:03:07;;;;;;;0.65;0.40;;;18.80;99.90;;;;;;5029587;28;20048;-58
2022/06/24 12:05:42;;;;;;;1.05;0.40;;;18.70;99.90;;;;;;5030298;28;20546;-65
2022/06/24 12:08:08;;;;;;;;;;;18.70;99.90;;;;;;5029506;28;20183;-61
2022/06/24 12:10:35;;;;;;;1.95;0.38;;;18.60;99.90;;;;;;5028989;28;19921;-60
2022/06/24 12:13:07;;;;;;;0.52;0.50;;;18.60;99.90;;;;;;5016933;28;20095;-59
2022/06/24 12:15:53;;;;;;;1.50;0.30;;;18.60;99.90;;;;;;5029541;28;20080;-62
2022/06/24 12:18:22;;;;;;;2.53;0.52;;;18.60;99.90;;;;;;5013621;28;20114;-59
2022/06/24 12:20:56;;;;;;;2.28;0.40;;;18.50;99.90;;;;;;5028256;28;20052;-64
2022/06/24 12:23:22;;;;;;;0.77;0.50;;;18.40;99.90;;;;;;5027942;28;20499;-63
2022/06/24 12:25:50;;;;;;;2.38;0.80;;;18.40;99.90;;;;;;5027966;28;20087;-73
2022/06/24 12:28:29;;;;;;;1.13;0.90;;;18.30;99.90;;;;;;5014216;28;20075;-66
2022/06/24 12:31:01;;;;;;;1.23;1.13;;;18.20;99.90;;;;;;5028861;28;20491;-66
2022/06/24 12:33:28;;;;;;;1.25;0.90;;;18.10;99.90;;;;;;5017969;28;20037;-63
2022/06/24 12:36:09;;;;;;;2.28;1.50;;;18.00;99.90;;;;;;5013032;28;20506;-61
2022/06/24 12:38:57;;;;;;;1.45;1.30;;;18.00;99.90;;;;;;5015818;28;20049;-65
2022/06/24 12:41:23;;;;;;;1.70;1.42;;;18.00;99.90;;;;;;5029597;28;20057;-59
2022/06/24 12:44:00;;;;;;;2.38;0.90;;;18.00;99.90;;;;;;5026934;28;20041;-58
2022/06/24 12:46:35;;;;;;;1.60;1.10;;;18.00;99.90;;;;;;5028393;28;20049;-64
2022/06/24 12:51:57;;;;;;;2.55;1.77;;;17.90;99.90;;;;;;5026089;28;20049;-58
2022/06/24 12:54:22;;;;;;;1.55;1.10;;;18.00;99.90;;;;;;5027867;28;20052;-58
2022/06/24 12:56:48;;;;;;;1.00;0.88;;;18.00;99.90;;;;;;5028187;28;20123;-64
2022/06/24 12:59:14;;;;;;;0.85;0.85;;;17.90;99.90;;;;;;5028696;28;20540;-61
2022/06/24 13:01:44;;;;;;;0.95;0.80;;;17.80;99.90;;;;;;5028988;28;20087;-58
2022/06/24 13:04:11;;;;;;;1.40;1.30;;;17.80;99.90;;;;;;5003723;28;20045;-62